Time;durP1;ratioP1;P1;durP2;ratioP2;P2;SDS_P1;SDS_P2;PMS_P1;PMS_P2;Temp;Humidity;BMP_temperature;BMP_pressure;BME280_temperature;BME280_humidity;BME280_pressure;Samples;Min_cycle;Max_cycle;Signal;HPM_P1;HPM_P2
2024/04/02 00:01:50;;;;;;;1.73;1.48;;;;;;;;;;6172836;23;20430;-63
2024/04/02 00:04:43;;;;;;;3.05;1.40;;;;;;;;;;6172390;23;20029;-63
2024/04/02 00:07:29;;;;;;;3.80;1.55;;;;;;;;;;6175261;23;20025;-63
2024/04/02 00:10:22;;;;;;;1.70;1.38;;;;;;;;;;6174242;23;20441;-65
2024/04/02 00:13:08;;;;;;;2.10;1.60;;;;;;;;;;6173297;23;20025;-65
2024/04/02 00:16:02;;;;;;;4.25;1.30;;;;;;;;;;6173461;23;20360;-65
2024/04/02 00:18:54;;;;;;;3.03;1.70;;;;;;;;;;6172243;23;20029;-60
2024/04/02 00:21:53;;;;;;;2.78;1.50;;;;;;;;;;6171999;23;20040;-56
2024/04/02 00:24:39;;;;;;;1.13;1.00;;;;;;;;;;6172156;23;20025;-53
2024/04/02 00:27:33;;;;;;;1.42;1.08;;;;;;;;;;6171545;23;20021;-55
2024/04/02 00:30:26;;;;;;;1.02;0.98;;;;;;;;;;6173350;23;20121;-56
2024/04/02 00:33:19;;;;;;;2.33;1.60;;;;;;;;;;6174194;23;20017;-56
2024/04/02 00:36:06;;;;;;;1.80;1.63;;;;;;;;;;6173336;23;20079;-53
2024/04/02 00:38:58;;;;;;;6.80;1.45;;;;;;;;;;6173008;23;20395;-50
2024/04/02 00:41:44;;;;;;;1.92;1.30;;;;;;;;;;6172141;23;20036;-51
2024/04/02 00:44:38;;;;;;;4.05;1.05;;;;;;;;;;6172219;23;20021;-52
2024/04/02 00:47:24;;;;;;;1.40;1.00;;;;;;;;;;6173028;23;20029;-59
2024/04/02 00:50:17;;;;;;;1.85;1.17;;;;;;;;;;6173555;23;20704;-51
2024/04/02 00:53:04;;;;;;;1.10;1.00;;;;;;;;;;6172235;23;20025;-52
2024/04/02 00:55:57;;;;;;;1.70;1.23;;;;;;;;;;6171420;23;20459;-50
2024/04/02 00:58:50;;;;;;;3.33;1.60;;;;;;;;;;6173167;23;20259;-50
2024/04/02 01:01:43;;;;;;;1.90;1.60;;;;;;;;;;6172971;23;20017;-50
2024/04/02 01:04:30;;;;;;;1.50;1.30;;;;;;;;;;6173490;23;20017;-50
2024/04/02 01:07:22;;;;;;;1.92;1.70;;;;;;;;;;6173791;23;20032;-48
2024/04/02 01:10:15;;;;;;;5.45;1.83;;;;;;;;;;6172529;23;20040;-46
2024/04/02 01:13:09;;;;;;;1.85;1.52;;;;;;;;;;6171781;23;20479;-46
2024/04/02 01:16:02;;;;;;;2.17;1.48;;;;;;;;;;6172045;23;20076;-59
2024/04/02 01:19:02;;;;;;;1.70;1.45;;;;;;;;;;6170913;23;20462;-58
2024/04/02 01:21:55;;;;;;;3.00;1.60;;;;;;;;;;6169987;23;20075;-58
2024/04/02 01:24:58;;;;;;;2.22;1.70;;;;;;;;;;6172214;23;20028;-58
2024/04/02 01:27:44;;;;;;;7.45;1.55;;;;;;;;;;6171645;23;20028;-58
2024/04/02 01:30:36;;;;;;;1.70;1.08;;;;;;;;;;6173493;23;20029;-58
2024/04/02 01:33:22;;;;;;;1.27;1.13;;;;;;;;;;6172712;23;20021;-54
2024/04/02 01:36:15;;;;;;;1.20;1.00;;;;;;;;;;6173416;23;20021;-54
2024/04/02 01:39:08;;;;;;;0.90;0.90;;;;;;;;;;6173008;23;20043;-55
2024/04/02 01:42:01;;;;;;;0.95;0.90;;;;;;;;;;6171915;23;20076;-55
2024/04/02 01:44:47;;;;;;;2.65;0.80;;;;;;;;;;6172270;23;20036;-50
2024/04/02 01:47:41;;;;;;;1.10;1.00;;;;;;;;;;6169514;23;20679;-53
2024/04/02 01:50:27;;;;;;;0.75;0.75;;;;;;;;;;6172795;23;20025;-51
2024/04/02 01:53:19;;;;;;;5.00;0.90;;;;;;;;;;6172286;23;20028;-56
2024/04/02 01:56:06;;;;;;;1.60;0.73;;;;;;;;;;6172242;23;20091;-54
2024/04/02 01:58:58;;;;;;;1.58;1.08;;;;;;;;;;6172852;23;20028;-53
2024/04/02 02:01:45;;;;;;;1.00;0.90;;;;;;;;;;6173105;23;20025;-63
2024/04/02 02:04:38;;;;;;;1.40;0.70;;;;;;;;;;6173347;23;20020;-62
2024/04/02 02:07:24;;;;;;;0.95;0.80;;;;;;;;;;6171745;23;20029;-62
2024/04/02 02:10:16;;;;;;;0.95;0.90;;;;;;;;;;6171389;23;20039;-60
2024/04/02 02:13:04;;;;;;;1.73;1.00;;;;;;;;;;6172335;23;20363;-55
2024/04/02 02:15:59;;;;;;;1.48;0.95;;;;;;;;;;6172750;23;20028;-63
2024/04/02 02:18:58;;;;;;;0.90;0.90;;;;;;;;;;6169919;23;20025;-63
2024/04/02 02:21:57;;;;;;;0.80;0.80;;;;;;;;;;6171054;23;20276;-62
2024/04/02 02:24:51;;;;;;;1.60;1.20;;;;;;;;;;6172331;23;20274;-63
2024/04/02 02:27:43;;;;;;;3.00;1.10;;;;;;;;;;6172534;23;20032;-62
2024/04/02 02:30:30;;;;;;;1.15;1.02;;;;;;;;;;6173932;23;20021;-56
2024/04/02 02:33:22;;;;;;;3.15;1.30;;;;;;;;;;6172065;23;20021;-55
2024/04/02 02:36:09;;;;;;;1.85;1.20;;;;;;;;;;6172358;23;20651;-54
2024/04/02 02:39:04;;;;;;;2.97;1.35;;;;;;;;;;6170106;23;20021;-55
2024/04/02 02:41:48;;;;;;;1.65;1.40;;;;;;;;;;6170823;23;20044;-47
2024/04/02 02:44:40;;;;;;;1.80;1.35;;;;;;;;;;6171981;23;20035;-65
2024/04/02 02:47:27;;;;;;;3.35;1.30;;;;;;;;;;6171868;23;20036;-65
2024/04/02 02:50:19;;;;;;;3.03;1.10;;;;;;;;;;6172257;23;20031;-65
2024/04/02 02:53:13;;;;;;;1.80;1.20;;;;;;;;;;6174763;23;20052;-65
2024/04/02 02:56:00;;;;;;;1.60;1.25;;;;;;;;;;6172236;23;20024;-65
2024/04/02 02:58:52;;;;;;;1.13;1.02;;;;;;;;;;6175935;23;20020;-51
2024/04/02 03:01:38;;;;;;;2.13;1.50;;;;;;;;;;6174178;23;20025;-50
2024/04/02 03:04:31;;;;;;;2.40;1.38;;;;;;;;;;6172644;23;20017;-49
2024/04/02 03:07:18;;;;;;;2.17;1.20;;;;;;;;;;6174037;23;20103;-49
2024/04/02 03:10:10;;;;;;;5.20;1.60;;;;;;;;;;6172297;23;20025;-59
2024/04/02 03:12:57;;;;;;;2.00;1.60;;;;;;;;;;6175193;23;20021;-60
2024/04/02 03:15:49;;;;;;;4.32;1.45;;;;;;;;;;6175101;23;20021;-63
2024/04/02 03:18:36;;;;;;;2.85;1.40;;;;;;;;;;6172993;23;20206;-63
2024/04/02 03:21:42;;;;;;;1.42;1.33;;;;;;;;;;6174170;23;20017;-62
2024/04/02 03:24:35;;;;;;;2.30;1.45;;;;;;;;;;6172539;23;20029;-62
2024/04/02 03:27:28;;;;;;;1.50;1.30;;;;;;;;;;6169579;23;20024;-65
2024/04/02 03:30:15;;;;;;;1.30;1.20;;;;;;;;;;6174156;23;20025;-64
2024/04/02 03:33:07;;;;;;;1.40;1.30;;;;;;;;;;6172040;23;20537;-65
2024/04/02 03:35:54;;;;;;;2.80;1.65;;;;;;;;;;6173162;23;20021;-64
2024/04/02 03:38:46;;;;;;;2.55;1.40;;;;;;;;;;6171988;23;20075;-63
2024/04/02 03:41:33;;;;;;;3.67;1.30;;;;;;;;;;6172906;23;20048;-66
2024/04/02 03:44:25;;;;;;;3.30;1.65;;;;;;;;;;6173205;23;20025;-66
2024/04/02 03:47:18;;;;;;;9.07;2.10;;;;;;;;;;6173523;23;20028;-65
2024/04/02 03:50:05;;;;;;;2.65;1.95;;;;;;;;;;6175301;23;20025;-65
2024/04/02 03:52:57;;;;;;;2.47;1.77;;;;;;;;;;6175109;23;20021;-65
2024/04/02 03:55:44;;;;;;;2.10;1.60;;;;;;;;;;6173050;23;20017;-56
2024/04/02 03:58:36;;;;;;;3.88;1.92;;;;;;;;;;6173490;23;20033;-58
2024/04/02 04:01:23;;;;;;;4.95;2.05;;;;;;;;;;6172186;23;20017;-59
2024/04/02 04:04:22;;;;;;;3.28;2.20;;;;;;;;;;6173442;23;20024;-60
2024/04/02 04:07:08;;;;;;;2.75;2.20;;;;;;;;;;6174991;23;20044;-53
2024/04/02 04:10:01;;;;;;;7.78;2.53;;;;;;;;;;6174306;23;20017;-50
2024/04/02 04:12:48;;;;;;;3.42;2.00;;;;;;;;;;6174746;23;20021;-50
2024/04/02 04:15:40;;;;;;;2.83;2.22;;;;;;;;;;6173753;23;20404;-51
2024/04/02 04:18:27;;;;;;;5.13;3.35;;;;;;;;;;6172847;23;20017;-52
2024/04/02 04:21:32;;;;;;;4.18;2.80;;;;;;;;;;6173743;23;20087;-50
2024/04/02 04:24:25;;;;;;;6.03;3.13;;;;;;;;;;6171187;23;20021;-63
2024/04/02 04:27:18;;;;;;;3.40;2.47;;;;;;;;;;6172454;23;20025;-63
2024/04/02 04:30:05;;;;;;;7.03;2.95;;;;;;;;;;6173102;23;20017;-63
2024/04/02 04:32:59;;;;;;;4.72;2.88;;;;;;;;;;6173236;23;20025;-64
2024/04/02 04:35:46;;;;;;;5.53;2.80;;;;;;;;;;6170225;23;20055;-52
2024/04/02 04:38:38;;;;;;;5.43;2.80;;;;;;;;;;6169514;23;20028;-63
2024/04/02 04:41:25;;;;;;;4.88;3.00;;;;;;;;;;6170867;23;20024;-64
2024/04/02 04:44:17;;;;;;;4.78;3.13;;;;;;;;;;6171283;23;20366;-65
2024/04/02 04:47:04;;;;;;;6.28;3.00;;;;;;;;;;6171060;23;20029;-64
2024/04/02 04:49:57;;;;;;;9.48;3.30;;;;;;;;;;6172790;23;20374;-63
2024/04/02 04:52:43;;;;;;;5.97;3.20;;;;;;;;;;6172312;23;20017;-57
2024/04/02 04:55:35;;;;;;;6.18;2.90;;;;;;;;;;6173017;23;20021;-61
2024/04/02 04:58:22;;;;;;;5.63;2.95;;;;;;;;;;6173328;23;20051;-59
2024/04/02 05:01:14;;;;;;;3.88;2.88;;;;;;;;;;6173488;23;20362;-58
2024/04/02 05:04:01;;;;;;;6.38;2.45;;;;;;;;;;6173154;23;20021;-54
2024/04/02 05:06:54;;;;;;;5.22;3.20;;;;;;;;;;6162744;23;20028;-63
2024/04/02 05:09:40;;;;;;;7.63;3.35;;;;;;;;;;6170526;23;20809;-64
2024/04/02 05:12:32;;;;;;;3.97;2.42;;;;;;;;;;6171829;23;20379;-64
2024/04/02 05:15:19;;;;;;;6.45;2.80;;;;;;;;;;6171796;23;20411;-64
2024/04/02 05:18:12;;;;;;;8.20;3.28;;;;;;;;;;6172246;23;20165;-64
2024/04/02 05:21:17;;;;;;;5.20;2.80;;;;;;;;;;6171658;23;20044;-52
2024/04/02 05:24:17;;;;;;;6.40;2.65;;;;;;;;;;6176130;23;20021;-62
2024/04/02 05:27:10;;;;;;;4.15;2.90;;;;;;;;;;6176511;23;20358;-62
2024/04/02 05:29:56;;;;;;;7.05;2.28;;;;;;;;;;6176998;23;20028;-62
2024/04/02 05:32:50;;;;;;;7.95;2.65;;;;;;;;;;6177096;23;20029;-62
2024/04/02 05:35:36;;;;;;;5.75;2.78;;;;;;;;;;6177668;23;20020;-63
2024/04/02 05:38:28;;;;;;;4.40;2.38;;;;;;;;;;6178347;23;20278;-62
2024/04/02 05:41:15;;;;;;;6.18;2.97;;;;;;;;;;6178938;23;20044;-48
2024/04/02 05:44:07;;;;;;;3.45;1.98;;;;;;;;;;6177907;23;20354;-49
2024/04/02 05:46:54;;;;;;;4.43;2.28;;;;;;;;;;6176337;23;20028;-52
2024/04/02 05:49:46;;;;;;;3.70;2.22;;;;;;;;;;6176806;23;20601;-52
2024/04/02 05:52:33;;;;;;;3.10;2.20;;;;;;;;;;6174744;23;20663;-65
2024/04/02 05:55:25;;;;;;;3.35;2.28;;;;;;;;;;6177687;23;20409;-64
2024/04/02 05:58:18;;;;;;;5.80;2.60;;;;;;;;;;6177214;23;20445;-64
2024/04/02 06:01:05;;;;;;;3.88;2.55;;;;;;;;;;6177918;23;20016;-64
2024/04/02 06:03:58;;;;;;;6.53;2.65;;;;;;;;;;6176911;23;20071;-64
2024/04/02 06:06:47;;;;;;;4.72;2.92;;;;;;;;;;6173645;23;20640;-64
2024/04/02 06:09:40;;;;;;;5.65;1.85;;;;;;;;;;6176508;23;20020;-65
2024/04/02 06:12:26;;;;;;;6.68;3.88;;;;;;;;;;6177427;23;20378;-64
2024/04/02 06:15:21;;;;;;;6.82;3.90;;;;;;;;;;6177646;23;20083;-64
2024/04/02 06:18:06;;;;;;;5.78;2.85;;;;;;;;;;6176670;23;20025;-64
2024/04/02 06:21:05;;;;;;;8.90;4.10;;;;;;;;;;6176121;23;20028;-57
2024/04/02 06:23:58;;;;;;;7.55;3.60;;;;;;;;;;6174559;23;20021;-58
2024/04/02 06:26:51;;;;;;;4.40;2.60;;;;;;;;;;6179169;23;20401;-59
2024/04/02 06:29:37;;;;;;;10.10;4.53;;;;;;;;;;6180072;23;20667;-59
2024/04/02 06:32:30;;;;;;;5.45;3.53;;;;;;;;;;6179121;23;20020;-59
2024/04/02 06:35:16;;;;;;;4.75;3.25;;;;;;;;;;6178876;23;20033;-58
2024/04/02 06:38:08;;;;;;;9.07;4.80;;;;;;;;;;6179448;23;20024;-56
2024/04/02 06:40:55;;;;;;;8.20;4.70;;;;;;;;;;6179309;23;20016;-56
2024/04/02 06:43:47;;;;;;;7.72;4.78;;;;;;;;;;6177497;23;20024;-54
2024/04/02 06:46:34;;;;;;;9.77;4.43;;;;;;;;;;6178929;23;20029;-57
2024/04/02 06:49:26;;;;;;;11.57;5.07;;;;;;;;;;6179907;23;20421;-64
2024/04/02 06:52:12;;;;;;;10.13;5.20;;;;;;;;;;6178760;23;20021;-64
2024/04/02 06:55:05;;;;;;;8.63;4.60;;;;;;;;;;6178811;23;20024;-63
2024/04/02 06:57:58;;;;;;;8.77;4.43;;;;;;;;;;6178298;23;20358;-63
2024/04/02 07:00:52;;;;;;;7.95;4.13;;;;;;;;;;6179052;23;20021;-63
2024/04/02 07:03:45;;;;;;;8.25;4.80;;;;;;;;;;6177382;23;20024;-63
2024/04/02 07:06:38;;;;;;;9.68;4.32;;;;;;;;;;6178251;23;20366;-62
2024/04/02 07:09:24;;;;;;;10.38;5.60;;;;;;;;;;6177424;23;20017;-62
2024/04/02 07:12:17;;;;;;;11.60;6.10;;;;;;;;;;6177991;23;20708;-62
2024/04/02 07:15:03;;;;;;;11.70;6.13;;;;;;;;;;6177580;23;20032;-54
2024/04/02 07:17:55;;;;;;;9.73;5.60;;;;;;;;;;6179043;23;20017;-60
2024/04/02 07:21:01;;;;;;;10.23;6.20;;;;;;;;;;6177602;23;20533;-56
2024/04/02 07:23:54;;;;;;;11.88;5.60;;;;;;;;;;6179427;23;20024;-60
2024/04/02 07:26:54;;;;;;;12.07;5.90;;;;;;;;;;6179754;23;20033;-58
2024/04/02 07:29:40;;;;;;;11.05;5.93;;;;;;;;;;6179243;23;20466;-55
2024/04/02 07:32:34;;;;;;;10.73;4.80;;;;;;;;;;6179911;23;20378;-60
2024/04/02 07:35:20;;;;;;;10.50;5.63;;;;;;;;;;6178485;23;20040;-64
2024/04/02 07:38:13;;;;;;;10.63;4.75;;;;;;;;;;6178417;23;20028;-63
2024/04/02 07:40:59;;;;;;;8.82;4.68;;;;;;;;;;6178447;23;20524;-64
2024/04/02 07:43:51;;;;;;;7.70;4.07;;;;;;;;;;6177163;23;20025;-51
2024/04/02 07:46:38;;;;;;;7.10;4.28;;;;;;;;;;6178541;23;20025;-64
2024/04/02 07:49:31;;;;;;;10.63;4.75;;;;;;;;;;6177668;23;20020;-65
2024/04/02 07:52:17;;;;;;;7.38;4.57;;;;;;;;;;6178588;23;20455;-65
2024/04/02 07:55:10;;;;;;;7.60;3.78;;;;;;;;;;6177813;23;20024;-65
2024/04/02 07:57:56;;;;;;;6.88;4.40;;;;;;;;;;6176549;23;20119;-65
2024/04/02 08:00:48;;;;;;;5.65;3.63;;;;;;;;;;6177196;23;20017;-65
2024/04/02 08:03:41;;;;;;;6.57;4.13;;;;;;;;;;6178433;23;20021;-63
2024/04/02 08:06:28;;;;;;;8.07;3.88;;;;;;;;;;6176074;23;20024;-63
2024/04/02 08:09:20;;;;;;;5.65;3.28;;;;;;;;;;6176903;23;20027;-62
2024/04/02 08:12:07;;;;;;;6.22;3.65;;;;;;;;;;6178031;23;20430;-61
2024/04/02 08:15:00;;;;;;;18.83;4.75;;;;;;;;;;6177813;23;20024;-51
2024/04/02 08:17:46;;;;;;;7.55;4.00;;;;;;;;;;6178220;23;20020;-50
2024/04/02 08:20:38;;;;;;;6.75;3.92;;;;;;;;;;6179219;23;20024;-46
2024/04/02 08:23:38;;;;;;;5.43;3.67;;;;;;;;;;6171647;23;20546;-51
2024/04/02 08:26:38;;;;;;;6.15;4.20;;;;;;;;;;6173528;23;20021;-53
2024/04/02 08:29:24;;;;;;;7.40;4.20;;;;;;;;;;6173009;23;20025;-49
2024/04/02 08:32:18;;;;;;;4.25;3.08;;;;;;;;;;6173117;23;20466;-62
2024/04/02 08:35:04;;;;;;;5.78;3.78;;;;;;;;;;6172436;23;20021;-61
2024/04/02 08:37:57;;;;;;;10.98;3.70;;;;;;;;;;6173736;23;20374;-62
2024/04/02 08:40:47;;;;;;;7.00;4.10;;;;;;;;;;6173681;23;20079;-62
2024/04/02 08:43:44;;;;;;;5.00;3.33;;;;;;;;;;6172559;23;20391;-64
2024/04/02 08:46:36;;;;;;;4.78;3.55;;;;;;;;;;6172824;23;20025;-65
2024/04/02 08:49:23;;;;;;;6.65;3.83;;;;;;;;;;6171617;23;20032;-64
2024/04/02 08:52:15;;;;;;;6.10;3.60;;;;;;;;;;6172575;23;20359;-65
2024/04/02 08:55:02;;;;;;;4.38;3.22;;;;;;;;;;6172595;23;20394;-65
2024/04/02 08:57:56;;;;;;;4.97;3.00;;;;;;;;;;6171295;23;20016;-65
2024/04/02 09:00:48;;;;;;;22.75;3.20;;;;;;;;;;6170572;23;20021;-51
2024/04/02 09:03:42;;;;;;;3.72;2.63;;;;;;;;;;6171980;23;20021;-51
2024/04/02 09:06:28;;;;;;;3.88;2.65;;;;;;;;;;6170363;23;20032;-51
2024/04/02 09:09:22;;;;;;;2.38;2.15;;;;;;;;;;6171536;23;20044;-61
2024/04/02 09:12:08;;;;;;;4.50;2.60;;;;;;;;;;6170854;23;20481;-62
2024/04/02 09:15:02;;;;;;;3.00;2.30;;;;;;;;;;6174071;23;20411;-61
2024/04/02 09:17:55;;;;;;;3.13;2.10;;;;;;;;;;6174130;23;20025;-62
2024/04/02 09:20:47;;;;;;;6.85;2.28;;;;;;;;;;6172165;23;20040;-61
2024/04/02 09:23:47;;;;;;;5.28;3.00;;;;;;;;;;6170987;23;20021;-62
2024/04/02 09:26:43;;;;;;;4.50;2.90;;;;;;;;;;6171596;23;20233;-61
2024/04/02 09:29:36;;;;;;;4.30;2.60;;;;;;;;;;6172601;23;20029;-64
2024/04/02 09:32:30;;;;;;;7.35;3.25;;;;;;;;;;6169901;23;20463;-64
2024/04/02 09:35:20;;;;;;;4.70;3.10;;;;;;;;;;6171661;23;20029;-64
2024/04/02 09:38:14;;;;;;;4.03;3.05;;;;;;;;;;6172624;23;20075;-61
2024/04/02 09:41:00;;;;;;;4.50;3.13;;;;;;;;;;6173128;23;20025;-61
2024/04/02 09:43:53;;;;;;;4.30;3.00;;;;;;;;;;6171885;23;20021;-61
2024/04/02 09:46:40;;;;;;;8.63;3.33;;;;;;;;;;6172408;23;20351;-61
2024/04/02 09:49:35;;;;;;;8.07;4.35;;;;;;;;;;6171424;23;20021;-60
2024/04/02 09:52:23;;;;;;;7.50;3.70;;;;;;;;;;6172595;23;20021;-61
2024/04/02 09:55:16;;;;;;;5.75;3.80;;;;;;;;;;6172278;23;20025;-62
2024/04/02 09:58:03;;;;;;;6.47;3.38;;;;;;;;;;6169605;23;20017;-61
2024/04/02 10:00:56;;;;;;;8.20;3.42;;;;;;;;;;6171537;23;20056;-62
2024/04/02 10:03:50;;;;;;;6.15;3.70;;;;;;;;;;6171194;23;20370;-61
2024/04/02 10:06:37;;;;;;;5.97;3.40;;;;;;;;;;6171424;23;20526;-60
2024/04/02 10:09:42;;;;;;;5.80;3.50;;;;;;;;;;6171493;23;20454;-56
2024/04/02 10:12:29;;;;;;;4.00;2.90;;;;;;;;;;6171965;23;20442;-60
2024/04/02 10:15:23;;;;;;;4.78;3.25;;;;;;;;;;6171339;23;20029;-59
2024/04/02 10:18:23;;;;;;;3.65;2.83;;;;;;;;;;6173403;23;20053;-58
2024/04/02 10:21:23;;;;;;;3.47;2.45;;;;;;;;;;6173149;23;20497;-59
2024/04/02 10:24:24;;;;;;;4.15;3.00;;;;;;;;;;6173350;23;20024;-49
2024/04/02 10:27:24;;;;;;;4.35;3.22;;;;;;;;;;6173110;23;20079;-49
2024/04/02 10:30:17;;;;;;;4.30;2.65;;;;;;;;;;6173921;23;20076;-54
2024/04/02 10:33:17;;;;;;;3.10;2.20;;;;;;;;;;6173330;23;20021;-51
2024/04/02 10:36:04;;;;;;;4.38;2.42;;;;;;;;;;6172926;23;20025;-58
2024/04/02 10:38:56;;;;;;;4.22;3.03;;;;;;;;;;6172753;23;20359;-50
2024/04/02 10:41:49;;;;;;;7.57;3.10;;;;;;;;;;6171438;23;20029;-52
2024/04/02 10:44:42;;;;;;;4.32;2.85;;;;;;;;;;6170909;23;20021;-55
2024/04/02 10:47:36;;;;;;;5.90;2.83;;;;;;;;;;6171517;23;20029;-50
2024/04/02 10:50:30;;;;;;;4.88;3.20;;;;;;;;;;6171610;23;20024;-53
2024/04/02 10:53:16;;;;;;;4.35;2.85;;;;;;;;;;6173128;23;20079;-62
2024/04/02 10:56:10;;;;;;;3.65;2.42;;;;;;;;;;6170307;23;20032;-62
2024/04/02 10:58:56;;;;;;;4.18;2.65;;;;;;;;;;6171838;23;20024;-61
2024/04/02 11:01:53;;;;;;;4.70;2.88;;;;;;;;;;6172194;23;20036;-63
2024/04/02 11:04:42;;;;;;;4.95;2.92;;;;;;;;;;6169863;23;20391;-51
2024/04/02 11:07:29;;;;;;;4.95;3.50;;;;;;;;;;6170585;23;20029;-63
2024/04/02 11:10:21;;;;;;;4.15;3.03;;;;;;;;;;6168984;23;20028;-63
2024/04/02 11:13:24;;;;;;;4.72;3.20;;;;;;;;;;6173674;23;20584;-62
2024/04/02 11:16:10;;;;;;;4.18;3.25;;;;;;;;;;6174202;23;20040;-63
2024/04/02 11:19:03;;;;;;;5.05;3.17;;;;;;;;;;6173831;23;20411;-63
2024/04/02 11:24:58;;;;;;;6.10;3.53;;;;;;;;;;6177607;23;20024;-52
2024/04/02 11:27:50;;;;;;;4.72;2.95;;;;;;;;;;6176977;23;20024;-52
2024/04/02 11:30:43;;;;;;;7.18;3.60;;;;;;;;;;6177703;23;20020;-59
2024/04/02 11:33:29;;;;;;;6.05;4.75;;;;;;;;;;6180084;23;20032;-60
2024/04/02 11:36:22;;;;;;;10.57;5.18;;;;;;;;;;6179849;23;20403;-62
2024/04/02 11:39:09;;;;;;;14.05;6.22;;;;;;;;;;6178001;23;20020;-63
2024/04/02 11:42:01;;;;;;;8.05;5.80;;;;;;;;;;6178126;23;20024;-63
2024/04/02 11:44:47;;;;;;;9.88;6.72;;;;;;;;;;6176388;23;20576;-62
2024/04/02 11:47:41;;;;;;;8.35;5.57;;;;;;;;;;6176508;23;20024;-63
2024/04/02 11:50:27;;;;;;;8.68;5.60;;;;;;;;;;6179492;23;20024;-60
2024/04/02 11:53:20;;;;;;;9.93;7.18;;;;;;;;;;6179363;23;20020;-60
2024/04/02 11:56:06;;;;;;;9.13;6.35;;;;;;;;;;6176563;23;20029;-60
2024/04/02 12:01:44;;;;;;;7.93;5.72;;;;;;;;;;6177627;23;20021;-52
2024/04/02 12:04:37;;;;;;;9.90;7.00;;;;;;;;;;6176895;23;20032;-60
2024/04/02 12:07:24;;;;;;;9.60;6.82;;;;;;;;;;6177134;23;20021;-60
2024/04/02 12:10:16;;;;;;;7.90;6.22;;;;;;;;;;6177909;23;20021;-61
2024/04/02 12:13:03;;;;;;;10.50;7.00;;;;;;;;;;6178454;23;20047;-61
2024/04/02 12:15:55;;;;;;;11.05;7.25;;;;;;;;;;6177959;23;20350;-61
2024/04/02 12:18:42;;;;;;;8.57;6.38;;;;;;;;;;6177078;23;20090;-62
2024/04/02 12:21:33;;;;;;;10.27;7.57;;;;;;;;;;6178726;23;20344;-62
2024/04/02 12:24:26;;;;;;;9.32;6.25;;;;;;;;;;6178554;23;20020;-61
2024/04/02 12:27:20;;;;;;;9.02;6.75;;;;;;;;;;6179308;23;20021;-62
2024/04/02 12:30:19;;;;;;;11.18;7.40;;;;;;;;;;6178927;23;20017;-60
2024/04/02 12:33:05;;;;;;;9.40;6.78;;;;;;;;;;6177671;23;20020;-62
2024/04/02 12:35:59;;;;;;;12.73;7.25;;;;;;;;;;6177150;23;20025;-62
2024/04/02 12:38:46;;;;;;;11.98;6.93;;;;;;;;;;6177550;23;20025;-62
2024/04/02 12:41:39;;;;;;;11.82;7.03;;;;;;;;;;6178119;23;20021;-62
2024/04/02 12:44:29;;;;;;;11.00;7.07;;;;;;;;;;6179085;23;20043;-62
2024/04/02 12:47:18;;;;;;;9.23;7.10;;;;;;;;;;6178569;23;20028;-58
2024/04/02 12:50:10;;;;;;;10.05;6.72;;;;;;;;;;6176703;23;20055;-59
2024/04/02 12:52:57;;;;;;;36.65;9.38;;;;;;;;;;6177728;23;20608;-58
2024/04/02 12:55:54;;;;;;;12.43;8.10;;;;;;;;;;6175240;23;20021;-60
2024/04/02 12:58:39;;;;;;;12.55;7.82;;;;;;;;;;6176403;23;20029;-61
2024/04/02 13:01:33;;;;;;;13.95;8.50;;;;;;;;;;6176189;23;20029;-60
2024/04/02 13:04:23;;;;;;;13.13;8.00;;;;;;;;;;6175428;23;20355;-59
2024/04/02 13:07:16;;;;;;;14.65;9.23;;;;;;;;;;6174689;23;20029;-60
2024/04/02 13:10:04;;;;;;;16.15;9.35;;;;;;;;;;6177432;23;20095;-59
2024/04/02 13:12:56;;;;;;;12.55;8.73;;;;;;;;;;6178690;23;20036;-57
2024/04/02 13:15:49;;;;;;;14.82;9.50;;;;;;;;;;6177681;23;20032;-54
2024/04/02 13:18:35;;;;;;;14.75;9.48;;;;;;;;;;6178696;23;20029;-51
2024/04/02 13:21:28;;;;;;;15.77;9.27;;;;;;;;;;6177411;23;20029;-54
2024/04/02 13:24:23;;;;;;;12.13;7.72;;;;;;;;;;6169160;23;20421;-51
2024/04/02 13:27:14;;;;;;;12.90;8.52;;;;;;;;;;6171995;23;20029;-63
2024/04/02 13:30:07;;;;;;;16.70;9.30;;;;;;;;;;6171457;23;20032;-64
2024/04/02 13:33:02;;;;;;;;;;;;;;;;;;6170844;23;20363;-65
2024/04/02 13:35:47;;;;;;;11.45;7.60;;;;;;;;;;6170837;23;19920;-64
2024/04/02 13:38:40;;;;;;;16.48;7.75;;;;;;;;;;6173066;23;20367;-64
2024/04/02 13:41:26;;;;;;;11.15;6.53;;;;;;;;;;6173429;23;20025;-64
2024/04/02 13:44:19;;;;;;;11.35;7.40;;;;;;;;;;6172142;23;20021;-53
2024/04/02 13:47:06;;;;;;;10.57;7.40;;;;;;;;;;6170113;23;20029;-55
2024/04/02 13:49:58;;;;;;;11.73;7.45;;;;;;;;;;6172451;23;20024;-54
2024/04/02 13:52:45;;;;;;;11.30;7.28;;;;;;;;;;6171560;23;20025;-56
2024/04/02 13:55:37;;;;;;;11.10;7.50;;;;;;;;;;6171138;23;20021;-63
2024/04/02 13:58:31;;;;;;;12.80;8.20;;;;;;;;;;6171377;23;20501;-55
2024/04/02 14:01:17;;;;;;;14.60;7.95;;;;;;;;;;6171443;23;20057;-48
2024/04/02 14:04:11;;;;;;;13.45;8.18;;;;;;;;;;6171435;23;20402;-49
2024/04/02 14:06:57;;;;;;;14.70;9.55;;;;;;;;;;6173626;23;20029;-50
2024/04/02 14:09:50;;;;;;;12.80;7.97;;;;;;;;;;6171685;23;20403;-52
2024/04/02 14:12:36;;;;;;;12.75;8.25;;;;;;;;;;6172777;23;20028;-51
2024/04/02 14:15:32;;;;;;;12.30;7.47;;;;;;;;;;6171894;23;20025;-54
2024/04/02 14:18:26;;;;;;;11.60;7.10;;;;;;;;;;6172416;23;20095;-55
2024/04/02 14:21:14;;;;;;;10.65;7.53;;;;;;;;;;6171600;23;20021;-53
2024/04/02 14:24:13;;;;;;;12.40;7.82;;;;;;;;;;6170999;23;20473;-62
2024/04/02 14:27:07;;;;;;;9.32;6.32;;;;;;;;;;6172074;23;20024;-53
2024/04/02 14:29:58;;;;;;;12.18;6.63;;;;;;;;;;6171503;23;20083;-53
2024/04/02 14:32:45;;;;;;;11.75;7.35;;;;;;;;;;6171878;23;20438;-51
2024/04/02 14:35:42;;;;;;;22.13;7.65;;;;;;;;;;6172477;23;20029;-51
2024/04/02 14:38:28;;;;;;;12.98;7.88;;;;;;;;;;6173129;23;20025;-53
2024/04/02 14:41:21;;;;;;;13.73;8.45;;;;;;;;;;6173008;23;20021;-63
2024/04/02 14:44:16;;;;;;;12.45;7.95;;;;;;;;;;6172059;23;20056;-63
2024/04/02 14:47:14;;;;;;;9.82;6.05;;;;;;;;;;6171092;23;20024;-63
2024/04/02 14:50:03;;;;;;;13.02;8.05;;;;;;;;;;6173152;23;20021;-51
2024/04/02 14:52:53;;;;;;;12.45;7.50;;;;;;;;;;6174058;23;20021;-62
2024/04/02 14:55:40;;;;;;;11.80;7.18;;;;;;;;;;6173693;23;20079;-52
2024/04/02 14:58:34;;;;;;;12.20;7.60;;;;;;;;;;6172930;23;20024;-51
2024/04/02 15:01:26;;;;;;;10.45;6.72;;;;;;;;;;6172191;23;20787;-49
2024/04/02 15:04:18;;;;;;;9.98;6.75;;;;;;;;;;6173872;23;20021;-48
2024/04/02 15:07:12;;;;;;;11.80;6.50;;;;;;;;;;6171957;23;20025;-52
2024/04/02 15:10:05;;;;;;;12.35;7.00;;;;;;;;;;6176024;23;20017;-52
2024/04/02 15:12:57;;;;;;;11.57;6.40;;;;;;;;;;6175317;23;20087;-56
2024/04/02 15:15:44;;;;;;;10.63;6.53;;;;;;;;;;6173602;23;20032;-51
2024/04/02 15:18:36;;;;;;;9.45;6.07;;;;;;;;;;6174229;23;20493;-63
2024/04/02 15:21:23;;;;;;;10.07;5.60;;;;;;;;;;6172835;23;20029;-51
2024/04/02 15:24:25;;;;;;;9.43;5.97;;;;;;;;;;6173416;23;20044;-60
2024/04/02 15:27:15;;;;;;;11.75;5.90;;;;;;;;;;6173157;23;20025;-60
2024/04/02 15:30:08;;;;;;;8.07;5.53;;;;;;;;;;6174236;23;20021;-59
2024/04/02 15:32:54;;;;;;;8.75;5.38;;;;;;;;;;6174142;23;20025;-59
2024/04/02 15:35:48;;;;;;;10.23;5.30;;;;;;;;;;6173255;23;20059;-59
2024/04/02 15:38:33;;;;;;;10.90;5.43;;;;;;;;;;6172830;23;20017;-49
2024/04/02 15:41:27;;;;;;;8.55;5.10;;;;;;;;;;6173481;23;20025;-53
2024/04/02 15:44:18;;;;;;;10.02;4.53;;;;;;;;;;6172791;23;20040;-52
2024/04/02 15:47:05;;;;;;;9.88;4.80;;;;;;;;;;6172554;23;20040;-61
2024/04/02 15:49:58;;;;;;;10.05;5.80;;;;;;;;;;6173322;23;20025;-61
2024/04/02 15:52:44;;;;;;;8.68;5.55;;;;;;;;;;6172637;23;20052;-64
2024/04/02 15:55:37;;;;;;;12.95;6.70;;;;;;;;;;6171923;23;20029;-63
2024/04/02 15:58:24;;;;;;;12.70;6.90;;;;;;;;;;6172350;23;20017;-63
2024/04/02 16:01:16;;;;;;;12.55;7.43;;;;;;;;;;6174504;23;20028;-63
2024/04/02 16:04:02;;;;;;;11.52;6.68;;;;;;;;;;6174079;23;20020;-63
2024/04/02 16:06:54;;;;;;;10.30;5.75;;;;;;;;;;6175181;23;20031;-63
2024/04/02 16:09:41;;;;;;;8.63;5.65;;;;;;;;;;6172879;23;20421;-64
2024/04/02 16:12:33;;;;;;;11.05;6.40;;;;;;;;;;6171499;23;20550;-64
2024/04/02 16:15:20;;;;;;;9.52;5.32;;;;;;;;;;6171035;23;20017;-50
2024/04/02 16:18:12;;;;;;;12.40;5.93;;;;;;;;;;6173309;23;20021;-60
2024/04/02 16:21:09;;;;;;;13.95;4.63;;;;;;;;;;6173600;23;20025;-60
2024/04/02 16:24:09;;;;;;;9.95;5.30;;;;;;;;;;6170588;23;20371;-60
2024/04/02 16:27:01;;;;;;;10.43;4.95;;;;;;;;;;6173556;23;20024;-59
2024/04/02 16:29:53;;;;;;;7.35;5.00;;;;;;;;;;6174054;23;20739;-59
2024/04/02 16:32:40;;;;;;;8.10;4.68;;;;;;;;;;6172704;23;20076;-60
2024/04/02 16:35:34;;;;;;;6.53;4.60;;;;;;;;;;6171153;23;20029;-63
2024/04/02 16:38:26;;;;;;;7.22;4.53;;;;;;;;;;6174232;23;20021;-66
2024/04/02 16:41:18;;;;;;;9.15;4.95;;;;;;;;;;6169737;23;20028;-66
2024/04/02 16:44:12;;;;;;;7.32;4.78;;;;;;;;;;6169849;23;20340;-64
2024/04/02 16:46:58;;;;;;;6.50;4.75;;;;;;;;;;6169716;23;20017;-65
2024/04/02 16:49:51;;;;;;;8.68;4.50;;;;;;;;;;6168811;23;20017;-64
2024/04/02 16:52:37;;;;;;;6.78;4.35;;;;;;;;;;6168857;23;20079;-66
2024/04/02 16:55:30;;;;;;;7.40;4.80;;;;;;;;;;6169280;23;20478;-48
2024/04/02 16:58:16;;;;;;;8.13;5.07;;;;;;;;;;6166415;23;20021;-49
2024/04/02 17:01:10;;;;;;;8.13;4.95;;;;;;;;;;6171604;23;20021;-53
2024/04/02 17:03:56;;;;;;;7.28;4.88;;;;;;;;;;6169283;23;20029;-49
2024/04/02 17:06:49;;;;;;;7.82;4.88;;;;;;;;;;6166727;23;20025;-49
2024/04/02 17:09:35;;;;;;;7.25;4.70;;;;;;;;;;6166227;23;20020;-47